createdAt,value
2024-02-12T00:00:58.898Z,6.40
2024-02-12T00:06:20.806Z,6.34
2024-02-12T00:11:25.732Z,6.29
2024-02-12T00:16:31.692Z,6.24
2024-02-12T00:21:37.781Z,6.23
2024-02-12T00:26:41.440Z,6.21
2024-02-12T00:31:45.186Z,6.20
2024-02-12T00:36:50.498Z,6.17
2024-02-12T00:41:58.456Z,6.14
2024-02-12T00:47:22.313Z,6.12
2024-02-12T00:52:50.630Z,6.07
2024-02-12T00:57:59.758Z,6.06
2024-02-12T01:03:23.562Z,6.04
2024-02-12T01:08:41.752Z,5.99
2024-02-12T01:13:49.177Z,5.96
2024-02-12T01:19:17.459Z,5.92
2024-02-12T01:24:42.377Z,5.91
2024-02-12T01:29:49.255Z,5.90
2024-02-12T01:34:53.095Z,5.90
2024-02-12T01:39:57.415Z,5.91
2024-02-12T01:45:13.785Z,5.92
2024-02-12T01:50:18.591Z,5.92
2024-02-12T01:56:01.365Z,5.94
2024-02-12T02:01:06.934Z,5.94
2024-02-12T02:06:14.975Z,5.95
2024-02-12T02:11:19.178Z,5.97
2024-02-12T02:17:04.331Z,5.97
2024-02-12T02:22:09.666Z,5.98
2024-02-12T02:27:13.215Z,5.96
2024-02-12T02:32:16.820Z,5.95
2024-02-12T02:37:46.016Z,5.96
2024-02-12T02:42:54.094Z,5.96
2024-02-12T02:48:03.398Z,5.94
2024-02-12T02:53:19.435Z,5.93
2024-02-12T02:58:28.626Z,5.93
2024-02-12T03:03:32.459Z,5.93
2024-02-12T03:08:37.040Z,5.93
2024-02-12T03:14:00.935Z,5.91
2024-02-12T03:19:06.680Z,5.91
2024-02-12T03:24:10.641Z,5.91
2024-02-12T03:29:14.571Z,5.89
2024-02-12T03:34:51.906Z,5.91
2024-02-12T03:40:39.177Z,5.92
2024-02-12T03:46:00.626Z,5.94
2024-02-12T03:51:22.603Z,5.99
2024-02-12T03:56:44.555Z,6.02
2024-02-12T04:01:48.415Z,6.04
2024-02-12T04:07:09.912Z,6.05
2024-02-12T04:12:21.778Z,6.07
2024-02-12T04:17:51.132Z,6.07
2024-02-12T04:22:54.887Z,6.07
2024-02-12T04:28:03.755Z,6.07
2024-02-12T04:33:17.854Z,6.07
2024-02-12T04:38:24.990Z,6.08
2024-02-12T04:43:48.980Z,6.09
2024-02-12T04:49:02.353Z,6.09
2024-02-12T04:54:30.004Z,6.10
2024-02-12T04:59:33.409Z,6.10
2024-02-12T05:04:39.773Z,6.11
2024-02-12T05:09:45.971Z,6.14
2024-02-12T05:14:52.365Z,6.15
2024-02-12T05:20:24.984Z,6.15
2024-02-12T05:25:28.516Z,6.14
2024-02-12T05:30:35.608Z,6.14
2024-02-12T05:35:38.970Z,6.15
2024-02-12T05:40:42.699Z,6.16
2024-02-12T05:45:49.175Z,6.16
2024-02-12T05:50:54.826Z,6.15
2024-02-12T05:56:01.182Z,6.16
2024-02-12T06:01:06.129Z,6.15
2024-02-12T06:06:10.129Z,6.15
2024-02-12T06:11:13.977Z,6.16
2024-02-12T06:16:36.547Z,6.14
2024-02-12T06:21:47.299Z,6.14
2024-02-12T06:27:12.355Z,6.14
2024-02-12T06:32:16.927Z,6.14
2024-02-12T06:37:20.776Z,6.13
2024-02-12T06:42:24.155Z,6.11
2024-02-12T06:47:27.635Z,6.12
2024-02-12T06:52:31.987Z,6.10
2024-02-12T06:57:38.364Z,6.10
2024-02-12T07:03:07.881Z,6.08
2024-02-12T07:08:22.747Z,6.08
2024-02-12T07:13:38.607Z,6.08
2024-02-12T07:19:14.887Z,6.08
2024-02-12T07:24:24.763Z,6.10
2024-02-12T07:29:38.316Z,6.12
2024-02-12T07:34:45.512Z,6.14
2024-02-12T07:39:52.454Z,6.10
2024-02-12T07:45:16.409Z,6.11
2024-02-12T07:50:31.333Z,6.13
2024-02-12T07:55:35.049Z,6.14
2024-02-12T08:01:09.305Z,6.14
2024-02-12T08:06:13.718Z,6.15
2024-02-12T08:11:18.864Z,6.15
2024-02-12T08:16:23.048Z,6.17
2024-02-12T08:21:26.609Z,6.17
2024-02-12T08:26:31.082Z,6.17
2024-02-12T08:31:35.186Z,6.17
2024-02-12T08:36:45.109Z,6.16
2024-02-12T08:41:52.268Z,6.17
2024-02-12T08:46:56.239Z,6.17
2024-02-12T08:52:03.302Z,6.15
2024-02-12T08:57:16.189Z,6.16
2024-02-12T09:02:23.725Z,6.17
2024-02-12T09:07:28.196Z,6.17
2024-02-12T09:12:40.456Z,6.16
2024-02-12T09:17:52.442Z,6.15
2024-02-12T09:22:56.685Z,6.17
2024-02-12T09:28:01.055Z,6.17
2024-02-12T09:33:05.301Z,6.20
2024-02-12T09:38:10.251Z,6.25
2024-02-12T09:43:22.288Z,6.29
2024-02-12T09:48:26.704Z,6.32
2024-02-12T09:53:38.612Z,6.40
2024-02-12T09:58:45.873Z,6.43
2024-02-12T10:04:03.846Z,6.46
2024-02-12T10:09:08.686Z,6.44
2024-02-12T10:14:14.579Z,6.45
2024-02-12T10:19:39.890Z,6.49
2024-02-12T10:24:47.225Z,6.50
2024-02-12T10:30:07.146Z,6.48
2024-02-12T10:35:15.883Z,6.48
2024-02-12T10:40:33.289Z,6.50
2024-02-12T10:45:37.133Z,6.55
2024-02-12T10:51:04.478Z,6.57
2024-02-12T10:56:29.003Z,6.62
2024-02-12T11:01:32.968Z,6.62
2024-02-12T11:07:20.131Z,6.59
2024-02-12T11:12:35.766Z,6.56
2024-02-12T11:17:39.853Z,6.52
2024-02-12T11:23:06.590Z,6.52
2024-02-12T11:28:26.506Z,6.46
2024-02-12T11:34:12.535Z,6.38
2024-02-12T11:39:39.266Z,6.33
2024-02-12T11:44:49.274Z,6.33
2024-02-12T11:49:56.345Z,6.33
2024-02-12T11:55:08.531Z,6.32
2024-02-12T12:00:38.381Z,6.37
2024-02-12T12:05:50.695Z,6.42
2024-02-12T12:10:54.386Z,6.43
2024-02-12T12:16:01.162Z,6.43
2024-02-12T12:21:08.701Z,6.51
2024-02-12T12:26:24.266Z,6.56
2024-02-12T12:31:30.671Z,6.57
2024-02-12T12:36:36.143Z,6.52
2024-02-12T12:41:40.014Z,6.53
2024-02-12T12:46:44.136Z,6.58
2024-02-12T12:51:47.832Z,6.56
2024-02-12T12:56:54.232Z,6.67
2024-02-12T13:02:29.160Z,6.78
2024-02-12T13:07:36.204Z,6.82
2024-02-12T13:12:59.935Z,6.88
2024-02-12T13:18:03.699Z,6.99
2024-02-12T13:23:08.374Z,7.01
2024-02-12T13:28:12.888Z,6.96
2024-02-12T13:33:18.188Z,6.95
2024-02-12T13:38:23.361Z,6.93
2024-02-12T13:43:26.917Z,6.88
2024-02-12T13:48:34.049Z,6.86
2024-02-12T13:53:59.920Z,6.82
2024-02-12T13:59:05.810Z,6.86
2024-02-12T14:04:11.377Z,6.92
2024-02-12T14:09:35.453Z,6.98
2024-02-12T14:14:48.772Z,7.01
2024-02-12T14:20:01.908Z,7.09
2024-02-12T14:25:06.954Z,7.11
2024-02-12T14:30:20.561Z,7.03
2024-02-12T14:35:27.173Z,6.98
2024-02-12T14:40:34.158Z,6.97
2024-02-12T14:45:45.452Z,6.93
2024-02-12T14:51:11.028Z,6.88
2024-02-12T14:56:14.496Z,6.82
2024-02-12T15:02:18.961Z,6.78
2024-02-12T15:07:25.463Z,6.72
2024-02-12T15:12:29.642Z,6.70
2024-02-12T15:17:58.683Z,6.67
2024-02-12T15:23:28.744Z,6.63
2024-02-12T15:28:32.141Z,6.59
2024-02-12T15:33:35.929Z,6.54
2024-02-12T15:38:47.162Z,6.50
2024-02-12T15:43:56.785Z,6.46
2024-02-12T15:49:07.573Z,6.36
2024-02-12T15:54:21.421Z,6.31
2024-02-12T15:59:25.444Z,6.31
2024-02-12T16:04:39.360Z,6.30
2024-02-12T16:09:43.091Z,6.26
2024-02-12T16:14:52.578Z,6.21
2024-02-12T16:19:56.866Z,6.15
2024-02-12T16:25:01.517Z,6.09
2024-02-12T16:30:16.049Z,6.04
2024-02-12T16:35:21.009Z,6.00
2024-02-12T16:40:24.911Z,5.97
2024-02-12T16:45:37.373Z,5.95
2024-02-12T16:50:41.214Z,5.92
2024-02-12T16:55:51.273Z,5.89
2024-02-12T17:01:10.658Z,5.84
2024-02-12T17:06:34.039Z,5.79
2024-02-12T17:11:38.961Z,5.70
2024-02-12T17:16:45.555Z,5.57
2024-02-12T17:21:52.877Z,5.47
2024-02-12T17:26:56.372Z,5.38
2024-02-12T17:32:02.522Z,5.31
2024-02-12T17:37:07.237Z,5.26
2024-02-12T17:42:20.167Z,5.19
2024-02-12T17:47:26.215Z,5.15
2024-02-12T17:52:32.725Z,5.13
2024-02-12T17:57:36.537Z,5.16
2024-02-12T18:02:39.900Z,5.20
2024-02-12T18:07:43.574Z,5.22
2024-02-12T18:12:47.600Z,5.20
2024-02-12T18:18:29.019Z,5.20
2024-02-12T18:23:32.919Z,5.21
2024-02-12T18:28:36.721Z,5.22
2024-02-12T18:33:50.267Z,5.24
2024-02-12T18:39:23.884Z,5.23
2024-02-12T18:44:30.636Z,5.25
2024-02-12T18:50:03.037Z,5.24
2024-02-12T18:55:11.192Z,5.18
2024-02-12T19:00:16.239Z,5.12
2024-02-12T19:05:23.869Z,5.04
2024-02-12T19:10:29.145Z,4.94
2024-02-12T19:15:32.965Z,4.88
2024-02-12T19:20:41.698Z,4.84
2024-02-12T19:25:54.262Z,4.78
2024-02-12T19:30:59.552Z,4.71
2024-02-12T19:36:07.054Z,4.65
2024-02-12T19:41:31.299Z,4.62
2024-02-12T19:46:36.229Z,4.61
2024-02-12T19:51:40.014Z,4.58
2024-02-12T19:57:06.966Z,4.56
2024-02-12T20:02:12.596Z,4.55
2024-02-12T20:07:17.032Z,4.52
2024-02-12T20:12:33.498Z,4.50
2024-02-12T20:17:38.504Z,4.50
2024-02-12T20:22:47.840Z,4.50
2024-02-12T20:27:51.424Z,4.50
2024-02-12T20:32:56.125Z,4.53
2024-02-12T20:38:03.387Z,4.54
2024-02-12T20:43:08.572Z,4.60
2024-02-12T20:48:13.999Z,4.67
2024-02-12T20:53:18.105Z,4.74
2024-02-12T20:58:30.685Z,4.82
2024-02-12T21:03:34.138Z,4.85
2024-02-12T21:08:46.885Z,4.84
2024-02-12T21:13:50.888Z,4.80
2024-02-12T21:19:09.255Z,4.72
2024-02-12T21:24:20.305Z,4.66
2024-02-12T21:29:23.898Z,4.60
2024-02-12T21:34:28.168Z,4.57
2024-02-12T21:39:43.050Z,4.54
2024-02-12T21:44:46.822Z,4.51
2024-02-12T21:49:53.596Z,4.48
2024-02-12T21:54:57.581Z,4.47
2024-02-12T22:00:01.225Z,4.44
2024-02-12T22:05:05.606Z,4.50
2024-02-12T22:10:17.081Z,4.50
2024-02-12T22:15:21.997Z,4.49
2024-02-12T22:20:25.968Z,4.47
2024-02-12T22:25:46.256Z,4.46
2024-02-12T22:31:12.447Z,4.49
2024-02-12T22:36:20.200Z,4.50
2024-02-12T22:41:44.393Z,4.47
2024-02-12T22:47:12.127Z,4.43
2024-02-12T22:52:38.199Z,4.39
2024-02-12T22:57:44.001Z,4.38
2024-02-12T23:02:58.219Z,4.35
2024-02-12T23:08:14.157Z,4.31
2024-02-12T23:13:58.382Z,4.29
2024-02-12T23:19:07.421Z,4.29
2024-02-12T23:24:16.268Z,4.27
2024-02-12T23:29:43.302Z,4.27
2024-02-12T23:34:51.244Z,4.26
2024-02-12T23:40:02.436Z,4.19
2024-02-12T23:45:08.131Z,4.15
2024-02-12T23:50:34.326Z,4.09
2024-02-12T23:55:38.640Z,4.00
